Stirling City, California
Current Conditions -  °F | °C
As of 7:55 PM on Saturday 24 Jan 2015 (Local Time) from KCIC Reporting Station
Clear Clear  
Wind Chill: 54°   Ceiling: Unl
Heat Index: 54°   Visibility: 10mi
Dew Point: 48°   Wind: 5mph
Humidity: 82%   Direction: 170°S
Pressure: 30.16"   Gusts: NA
Location:  39.91°N, 121.53°W
Report Text: KCIC 250355Z AUTO 17004KT 10SM CLR 12/09 A3016 RMK AO1
Loading
Personal Weather Stations






























Interactive Weather Map New forecast layout! Learn more

10-Day Weather Forecast

Advertisements
Track Severe Weather on mobile